sensor_id;sensor_type;location;lat;lon;timestamp;P1;durP1;ratioP1;P2;durP2;ratioP2
13785;SDS011;47474;48.824;9.384;2023-04-25T00:01:27;1.70;;;1.60;;
13785;SDS011;47474;48.824;9.384;2023-04-25T00:03:54;2.30;;;2.00;;
13785;SDS011;47474;48.824;9.384;2023-04-25T00:06:30;1.67;;;1.57;;
13785;SDS011;47474;48.824;9.384;2023-04-25T00:09:01;2.07;;;1.80;;
13785;SDS011;47474;48.824;9.384;2023-04-25T00:11:32;1.83;;;1.70;;
13785;SDS011;47474;48.824;9.384;2023-04-25T00:14:10;2.40;;;2.00;;
13785;SDS011;47474;48.824;9.384;2023-04-25T00:16:46;1.70;;;1.60;;
13785;SDS011;47474;48.824;9.384;2023-04-25T00:19:33;2.03;;;1.83;;
13785;SDS011;47474;48.824;9.384;2023-04-25T00:22:03;3.83;;;1.77;;
13785;SDS011;47474;48.824;9.384;2023-04-25T00:24:35;2.00;;;1.80;;
13785;SDS011;47474;48.824;9.384;2023-04-25T00:27:04;2.17;;;1.80;;
13785;SDS011;47474;48.824;9.384;2023-04-25T00:32:16;1.53;;;1.40;;
13785;SDS011;47474;48.824;9.384;2023-04-25T00:34:45;3.07;;;1.60;;
13785;SDS011;47474;48.824;9.384;2023-04-25T00:37:16;1.73;;;1.63;;
13785;SDS011;47474;48.824;9.384;2023-04-25T00:39:46;2.47;;;1.97;;
13785;SDS011;47474;48.824;9.384;2023-04-25T00:42:19;2.03;;;1.70;;
13785;SDS011;47474;48.824;9.384;2023-04-25T00:45:05;2.13;;;1.80;;
13785;SDS011;47474;48.824;9.384;2023-04-25T00:47:49;2.23;;;1.57;;
13785;SDS011;47474;48.824;9.384;2023-04-25T00:50:54;3.77;;;2.10;;
13785;SDS011;47474;48.824;9.384;2023-04-25T00:53:37;2.47;;;1.70;;
13785;SDS011;47474;48.824;9.384;2023-04-25T00:56:28;1.90;;;1.70;;
13785;SDS011;47474;48.824;9.384;2023-04-25T00:59:10;2.17;;;1.90;;
13785;SDS011;47474;48.824;9.384;2023-04-25T01:01:52;1.47;;;1.37;;
13785;SDS011;47474;48.824;9.384;2023-04-25T01:04:22;1.70;;;1.60;;
13785;SDS011;47474;48.824;9.384;2023-04-25T01:06:49;2.03;;;1.60;;
13785;SDS011;47474;48.824;9.384;2023-04-25T01:09:16;1.93;;;1.60;;
13785;SDS011;47474;48.824;9.384;2023-04-25T01:11:48;2.30;;;1.80;;
13785;SDS011;47474;48.824;9.384;2023-04-25T01:14:39;1.70;;;1.60;;
13785;SDS011;47474;48.824;9.384;2023-04-25T01:17:51;3.77;;;1.80;;
13785;SDS011;47474;48.824;9.384;2023-04-25T01:20:36;1.87;;;1.70;;
13785;SDS011;47474;48.824;9.384;2023-04-25T01:29:49;1.93;;;1.60;;
13785;SDS011;47474;48.824;9.384;2023-04-25T01:32:37;1.60;;;1.50;;
13785;SDS011;47474;48.824;9.384;2023-04-25T01:35:35;1.57;;;1.47;;
13785;SDS011;47474;48.824;9.384;2023-04-25T01:41:54;1.90;;;1.80;;
13785;SDS011;47474;48.824;9.384;2023-04-25T01:44:43;1.97;;;1.60;;
13785;SDS011;47474;48.824;9.384;2023-04-25T01:47:16;2.17;;;1.97;;
13785;SDS011;47474;48.824;9.384;2023-04-25T01:49:57;2.23;;;1.80;;
13785;SDS011;47474;48.824;9.384;2023-04-25T01:52:31;2.00;;;1.80;;
13785;SDS011;47474;48.824;9.384;2023-04-25T01:54:58;1.80;;;1.70;;
13785;SDS011;47474;48.824;9.384;2023-04-25T01:57:29;2.20;;;2.00;;
13785;SDS011;47474;48.824;9.384;2023-04-25T02:00:07;3.37;;;2.20;;
13785;SDS011;47474;48.824;9.384;2023-04-25T02:03:03;2.20;;;2.00;;
13785;SDS011;47474;48.824;9.384;2023-04-25T02:05:49;2.73;;;2.03;;
13785;SDS011;47474;48.824;9.384;2023-04-25T02:08:37;3.60;;;2.43;;
13785;SDS011;47474;48.824;9.384;2023-04-25T02:11:26;4.00;;;2.27;;
13785;SDS011;47474;48.824;9.384;2023-04-25T02:14:08;2.17;;;1.97;;
13785;SDS011;47474;48.824;9.384;2023-04-25T02:16:44;3.17;;;2.07;;
13785;SDS011;47474;48.824;9.384;2023-04-25T02:19:12;2.70;;;2.10;;
13785;SDS011;47474;48.824;9.384;2023-04-25T02:21:45;2.93;;;2.10;;
13785;SDS011;47474;48.824;9.384;2023-04-25T02:24:14;2.30;;;2.10;;
13785;SDS011;47474;48.824;9.384;2023-04-25T02:26:44;2.27;;;2.00;;
13785;SDS011;47474;48.824;9.384;2023-04-25T02:29:14;2.00;;;1.80;;
13785;SDS011;47474;48.824;9.384;2023-04-25T02:31:53;2.43;;;2.03;;
13785;SDS011;47474;48.824;9.384;2023-04-25T02:34:45;2.43;;;1.90;;
13785;SDS011;47474;48.824;9.384;2023-04-25T02:37:55;3.80;;;1.97;;
13785;SDS011;47474;48.824;9.384;2023-04-25T02:40:51;2.23;;;2.03;;
13785;SDS011;47474;48.824;9.384;2023-04-25T02:43:35;3.13;;;1.83;;
13785;SDS011;47474;48.824;9.384;2023-04-25T02:46:45;2.07;;;1.97;;
13785;SDS011;47474;48.824;9.384;2023-04-25T02:49:13;3.10;;;2.17;;
13785;SDS011;47474;48.824;9.384;2023-04-25T02:51:52;2.57;;;2.37;;
13785;SDS011;47474;48.824;9.384;2023-04-25T02:54:29;2.60;;;2.40;;
13785;SDS011;47474;48.824;9.384;2023-04-25T02:57:01;2.47;;;2.27;;
13785;SDS011;47474;48.824;9.384;2023-04-25T02:59:30;2.70;;;2.43;;
13785;SDS011;47474;48.824;9.384;2023-04-25T03:08:18;3.00;;;2.47;;
13785;SDS011;47474;48.824;9.384;2023-04-25T03:11:29;3.77;;;2.20;;
13785;SDS011;47474;48.824;9.384;2023-04-25T03:14:38;2.10;;;2.00;;
13785;SDS011;47474;48.824;9.384;2023-04-25T03:17:25;4.13;;;2.70;;
13785;SDS011;47474;48.824;9.384;2023-04-25T03:19:56;2.73;;;2.50;;
13785;SDS011;47474;48.824;9.384;2023-04-25T03:22:31;3.17;;;2.83;;
13785;SDS011;47474;48.824;9.384;2023-04-25T03:25:07;3.23;;;2.60;;
13785;SDS011;47474;48.824;9.384;2023-04-25T03:27:37;3.67;;;2.60;;
13785;SDS011;47474;48.824;9.384;2023-04-25T03:30:04;2.93;;;2.63;;
13785;SDS011;47474;48.824;9.384;2023-04-25T03:32:32;2.90;;;2.67;;
13785;SDS011;47474;48.824;9.384;2023-04-25T03:34:59;2.80;;;2.60;;
13785;SDS011;47474;48.824;9.384;2023-04-25T03:37:26;3.10;;;2.60;;
13785;SDS011;47474;48.824;9.384;2023-04-25T03:39:54;4.03;;;2.57;;
13785;SDS011;47474;48.824;9.384;2023-04-25T03:42:20;2.60;;;2.40;;
13785;SDS011;47474;48.824;9.384;2023-04-25T03:44:47;3.53;;;2.53;;
13785;SDS011;47474;48.824;9.384;2023-04-25T03:47:14;3.30;;;2.67;;
13785;SDS011;47474;48.824;9.384;2023-04-25T03:49:40;4.53;;;2.50;;
13785;SDS011;47474;48.824;9.384;2023-04-25T03:52:07;2.90;;;2.30;;
13785;SDS011;47474;48.824;9.384;2023-04-25T03:54:33;3.37;;;2.77;;
13785;SDS011;47474;48.824;9.384;2023-04-25T03:57:01;3.20;;;2.77;;
13785;SDS011;47474;48.824;9.384;2023-04-25T03:59:28;2.47;;;2.20;;
13785;SDS011;47474;48.824;9.384;2023-04-25T04:01:55;4.00;;;2.40;;
13785;SDS011;47474;48.824;9.384;2023-04-25T04:04:22;2.50;;;2.30;;
13785;SDS011;47474;48.824;9.384;2023-04-25T04:06:48;2.73;;;2.27;;
13785;SDS011;47474;48.824;9.384;2023-04-25T04:09:15;3.03;;;2.53;;
13785;SDS011;47474;48.824;9.384;2023-04-25T04:11:42;2.47;;;2.27;;
13785;SDS011;47474;48.824;9.384;2023-04-25T04:14:10;2.50;;;2.30;;
13785;SDS011;47474;48.824;9.384;2023-04-25T04:16:37;2.60;;;2.40;;
13785;SDS011;47474;48.824;9.384;2023-04-25T04:19:03;2.43;;;2.20;;
13785;SDS011;47474;48.824;9.384;2023-04-25T04:21:30;2.40;;;2.20;;
13785;SDS011;47474;48.824;9.384;2023-04-25T04:23:56;2.33;;;2.13;;
13785;SDS011;47474;48.824;9.384;2023-04-25T04:26:25;3.40;;;2.83;;
13785;SDS011;47474;48.824;9.384;2023-04-25T04:28:51;3.20;;;2.63;;
13785;SDS011;47474;48.824;9.384;2023-04-25T04:31:20;3.37;;;2.90;;
13785;SDS011;47474;48.824;9.384;2023-04-25T04:33:47;2.90;;;2.70;;
13785;SDS011;47474;48.824;9.384;2023-04-25T04:36:13;3.20;;;2.63;;
13785;SDS011;47474;48.824;9.384;2023-04-25T04:38:40;4.67;;;3.17;;
13785;SDS011;47474;48.824;9.384;2023-04-25T04:41:07;4.53;;;2.93;;
13785;SDS011;47474;48.824;9.384;2023-04-25T04:43:34;2.53;;;2.33;;
13785;SDS011;47474;48.824;9.384;2023-04-25T04:46:01;2.83;;;2.53;;
13785;SDS011;47474;48.824;9.384;2023-04-25T04:48:30;2.80;;;2.60;;
13785;SDS011;47474;48.824;9.384;2023-04-25T04:50:57;3.33;;;2.60;;
13785;SDS011;47474;48.824;9.384;2023-04-25T04:53:24;3.10;;;2.50;;
13785;SDS011;47474;48.824;9.384;2023-04-25T04:55:50;2.70;;;2.50;;
13785;SDS011;47474;48.824;9.384;2023-04-25T04:58:17;2.50;;;2.30;;
13785;SDS011;47474;48.824;9.384;2023-04-25T05:00:44;2.57;;;2.23;;
13785;SDS011;47474;48.824;9.384;2023-04-25T05:03:11;3.00;;;2.13;;
13785;SDS011;47474;48.824;9.384;2023-04-25T05:05:39;3.13;;;2.40;;
13785;SDS011;47474;48.824;9.384;2023-04-25T05:08:06;2.90;;;2.57;;
13785;SDS011;47474;48.824;9.384;2023-04-25T05:10:32;2.50;;;2.30;;
13785;SDS011;47474;48.824;9.384;2023-04-25T05:12:59;3.93;;;2.90;;
13785;SDS011;47474;48.824;9.384;2023-04-25T05:15:25;3.60;;;2.27;;
13785;SDS011;47474;48.824;9.384;2023-04-25T05:17:52;3.87;;;3.00;;
13785;SDS011;47474;48.824;9.384;2023-04-25T05:20:18;3.80;;;2.73;;
13785;SDS011;47474;48.824;9.384;2023-04-25T05:22:46;3.10;;;2.80;;
13785;SDS011;47474;48.824;9.384;2023-04-25T05:25:13;2.87;;;2.57;;
13785;SDS011;47474;48.824;9.384;2023-04-25T05:27:39;2.73;;;2.53;;
13785;SDS011;47474;48.824;9.384;2023-04-25T05:30:06;3.73;;;3.33;;
13785;SDS011;47474;48.824;9.384;2023-04-25T05:32:34;3.57;;;2.53;;
13785;SDS011;47474;48.824;9.384;2023-04-25T05:35:00;4.17;;;2.53;;
13785;SDS011;47474;48.824;9.384;2023-04-25T05:37:28;2.80;;;2.60;;
13785;SDS011;47474;48.824;9.384;2023-04-25T05:39:56;3.67;;;3.10;;
13785;SDS011;47474;48.824;9.384;2023-04-25T05:42:23;3.00;;;2.80;;
13785;SDS011;47474;48.824;9.384;2023-04-25T05:44:50;4.13;;;2.80;;
13785;SDS011;47474;48.824;9.384;2023-04-25T05:47:20;3.67;;;2.63;;
13785;SDS011;47474;48.824;9.384;2023-04-25T05:49:47;3.90;;;2.87;;
13785;SDS011;47474;48.824;9.384;2023-04-25T05:52:13;3.00;;;2.73;;
13785;SDS011;47474;48.824;9.384;2023-04-25T05:54:41;4.03;;;3.17;;
13785;SDS011;47474;48.824;9.384;2023-04-25T05:57:08;4.50;;;3.00;;
13785;SDS011;47474;48.824;9.384;2023-04-25T05:59:41;3.53;;;2.80;;
13785;SDS011;47474;48.824;9.384;2023-04-25T06:02:08;3.30;;;3.00;;
13785;SDS011;47474;48.824;9.384;2023-04-25T06:04:34;3.97;;;2.63;;
13785;SDS011;47474;48.824;9.384;2023-04-25T06:07:01;3.77;;;3.43;;
13785;SDS011;47474;48.824;9.384;2023-04-25T06:09:28;3.50;;;3.17;;
13785;SDS011;47474;48.824;9.384;2023-04-25T06:11:56;3.37;;;3.07;;
13785;SDS011;47474;48.824;9.384;2023-04-25T06:14:24;3.40;;;3.10;;
13785;SDS011;47474;48.824;9.384;2023-04-25T06:16:51;4.20;;;3.33;;
13785;SDS011;47474;48.824;9.384;2023-04-25T06:19:17;3.63;;;3.33;;
13785;SDS011;47474;48.824;9.384;2023-04-25T06:21:44;3.60;;;2.87;;
13785;SDS011;47474;48.824;9.384;2023-04-25T06:24:13;3.73;;;3.30;;
13785;SDS011;47474;48.824;9.384;2023-04-25T06:26:40;4.03;;;3.37;;
13785;SDS011;47474;48.824;9.384;2023-04-25T06:29:06;3.93;;;3.53;;
13785;SDS011;47474;48.824;9.384;2023-04-25T06:31:34;3.40;;;3.10;;
13785;SDS011;47474;48.824;9.384;2023-04-25T06:34:01;5.03;;;3.77;;
13785;SDS011;47474;48.824;9.384;2023-04-25T06:36:27;5.10;;;3.83;;
13785;SDS011;47474;48.824;9.384;2023-04-25T06:38:54;4.93;;;3.80;;
13785;SDS011;47474;48.824;9.384;2023-04-25T06:41:20;3.20;;;2.90;;
13785;SDS011;47474;48.824;9.384;2023-04-25T06:43:47;4.50;;;3.43;;
13785;SDS011;47474;48.824;9.384;2023-04-25T06:46:13;4.13;;;3.73;;
13785;SDS011;47474;48.824;9.384;2023-04-25T06:48:41;3.60;;;3.30;;
13785;SDS011;47474;48.824;9.384;2023-04-25T06:51:08;3.30;;;3.00;;
13785;SDS011;47474;48.824;9.384;2023-04-25T06:53:34;4.30;;;3.10;;
13785;SDS011;47474;48.824;9.384;2023-04-25T06:56:01;4.10;;;3.53;;
13785;SDS011;47474;48.824;9.384;2023-04-25T06:58:28;3.90;;;3.30;;
13785;SDS011;47474;48.824;9.384;2023-04-25T07:00:54;3.57;;;3.23;;
13785;SDS011;47474;48.824;9.384;2023-04-25T07:03:21;3.20;;;3.00;;
13785;SDS011;47474;48.824;9.384;2023-04-25T07:05:50;5.10;;;4.60;;
13785;SDS011;47474;48.824;9.384;2023-04-25T07:08:16;4.70;;;3.73;;
13785;SDS011;47474;48.824;9.384;2023-04-25T07:10:43;4.80;;;4.30;;
13785;SDS011;47474;48.824;9.384;2023-04-25T07:13:11;3.80;;;3.40;;
13785;SDS011;47474;48.824;9.384;2023-04-25T07:15:37;4.47;;;4.07;;
13785;SDS011;47474;48.824;9.384;2023-04-25T07:18:04;4.00;;;3.60;;
13785;SDS011;47474;48.824;9.384;2023-04-25T07:20:30;3.53;;;3.23;;
13785;SDS011;47474;48.824;9.384;2023-04-25T07:22:59;3.67;;;3.37;;
13785;SDS011;47474;48.824;9.384;2023-04-25T07:25:25;5.40;;;3.47;;
13785;SDS011;47474;48.824;9.384;2023-04-25T07:27:52;4.50;;;3.67;;
13785;SDS011;47474;48.824;9.384;2023-04-25T07:30:18;3.93;;;3.00;;
13785;SDS011;47474;48.824;9.384;2023-04-25T07:32:45;3.93;;;3.37;;
13785;SDS011;47474;48.824;9.384;2023-04-25T07:35:12;4.07;;;3.37;;
13785;SDS011;47474;48.824;9.384;2023-04-25T07:37:38;4.83;;;3.30;;
13785;SDS011;47474;48.824;9.384;2023-04-25T07:40:07;3.47;;;3.00;;
13785;SDS011;47474;48.824;9.384;2023-04-25T07:42:35;3.70;;;3.30;;
13785;SDS011;47474;48.824;9.384;2023-04-25T07:45:01;3.90;;;3.47;;
13785;SDS011;47474;48.824;9.384;2023-04-25T07:47:28;4.03;;;3.63;;
13785;SDS011;47474;48.824;9.384;2023-04-25T07:49:55;3.70;;;3.40;;
13785;SDS011;47474;48.824;9.384;2023-04-25T07:52:22;3.67;;;3.37;;
13785;SDS011;47474;48.824;9.384;2023-04-25T07:54:49;3.63;;;3.33;;
13785;SDS011;47474;48.824;9.384;2023-04-25T07:57:17;4.33;;;3.73;;
13785;SDS011;47474;48.824;9.384;2023-04-25T07:59:44;3.50;;;3.20;;
13785;SDS011;47474;48.824;9.384;2023-04-25T08:02:11;4.03;;;2.90;;
13785;SDS011;47474;48.824;9.384;2023-04-25T08:04:37;4.00;;;3.57;;
13785;SDS011;47474;48.824;9.384;2023-04-25T08:07:04;3.60;;;3.30;;
13785;SDS011;47474;48.824;9.384;2023-04-25T08:09:30;3.90;;;3.30;;
13785;SDS011;47474;48.824;9.384;2023-04-25T08:11:59;3.87;;;3.03;;
13785;SDS011;47474;48.824;9.384;2023-04-25T08:14:28;3.63;;;3.23;;
13785;SDS011;47474;48.824;9.384;2023-04-25T08:17:00;4.20;;;3.80;;
13785;SDS011;47474;48.824;9.384;2023-04-25T08:19:28;3.87;;;3.47;;
13785;SDS011;47474;48.824;9.384;2023-04-25T08:21:54;3.93;;;3.57;;
13785;SDS011;47474;48.824;9.384;2023-04-25T08:24:21;6.50;;;4.50;;
13785;SDS011;47474;48.824;9.384;2023-04-25T08:26:48;4.97;;;4.43;;
13785;SDS011;47474;48.824;9.384;2023-04-25T08:29:14;5.07;;;4.57;;
13785;SDS011;47474;48.824;9.384;2023-04-25T08:31:42;4.77;;;4.37;;
13785;SDS011;47474;48.824;9.384;2023-04-25T08:34:09;4.60;;;4.07;;
13785;SDS011;47474;48.824;9.384;2023-04-25T08:36:36;4.30;;;3.90;;
13785;SDS011;47474;48.824;9.384;2023-04-25T08:39:02;4.83;;;4.43;;
13785;SDS011;47474;48.824;9.384;2023-04-25T08:41:29;4.83;;;4.33;;
13785;SDS011;47474;48.824;9.384;2023-04-25T08:43:56;5.30;;;4.77;;
13785;SDS011;47474;48.824;9.384;2023-04-25T08:46:25;5.33;;;4.83;;
13785;SDS011;47474;48.824;9.384;2023-04-25T08:48:53;4.83;;;4.37;;
13785;SDS011;47474;48.824;9.384;2023-04-25T08:51:22;4.93;;;4.53;;
13785;SDS011;47474;48.824;9.384;2023-04-25T08:53:50;5.17;;;4.67;;
13785;SDS011;47474;48.824;9.384;2023-04-25T08:56:18;6.33;;;5.67;;
13785;SDS011;47474;48.824;9.384;2023-04-25T08:58:47;5.83;;;5.33;;
13785;SDS011;47474;48.824;9.384;2023-04-25T09:01:14;5.90;;;5.40;;
13785;SDS011;47474;48.824;9.384;2023-04-25T09:03:41;6.40;;;5.80;;
13785;SDS011;47474;48.824;9.384;2023-04-25T09:06:09;7.47;;;6.03;;
13785;SDS011;47474;48.824;9.384;2023-04-25T09:08:36;7.13;;;6.43;;
13785;SDS011;47474;48.824;9.384;2023-04-25T09:11:05;6.43;;;5.73;;
13785;SDS011;47474;48.824;9.384;2023-04-25T09:13:31;6.10;;;5.50;;
13785;SDS011;47474;48.824;9.384;2023-04-25T09:15:58;6.33;;;5.73;;
13785;SDS011;47474;48.824;9.384;2023-04-25T09:18:25;6.07;;;5.47;;
13785;SDS011;47474;48.824;9.384;2023-04-25T09:20:52;6.30;;;5.70;;
13785;SDS011;47474;48.824;9.384;2023-04-25T09:23:21;6.77;;;6.17;;
13785;SDS011;47474;48.824;9.384;2023-04-25T09:25:49;6.53;;;5.93;;
13785;SDS011;47474;48.824;9.384;2023-04-25T09:28:16;7.00;;;6.27;;
13785;SDS011;47474;48.824;9.384;2023-04-25T09:30:44;8.67;;;6.83;;
13785;SDS011;47474;48.824;9.384;2023-04-25T09:33:12;6.97;;;6.10;;
13785;SDS011;47474;48.824;9.384;2023-04-25T09:35:42;6.37;;;5.60;;
13785;SDS011;47474;48.824;9.384;2023-04-25T09:38:10;5.93;;;5.33;;
13785;SDS011;47474;48.824;9.384;2023-04-25T09:40:45;5.70;;;5.10;;
13785;SDS011;47474;48.824;9.384;2023-04-25T09:43:18;5.77;;;5.27;;
13785;SDS011;47474;48.824;9.384;2023-04-25T09:45:45;6.33;;;5.73;;
13785;SDS011;47474;48.824;9.384;2023-04-25T09:48:15;6.13;;;5.53;;
13785;SDS011;47474;48.824;9.384;2023-04-25T09:50:46;7.67;;;5.67;;
13785;SDS011;47474;48.824;9.384;2023-04-25T09:53:45;6.50;;;5.50;;
13785;SDS011;47474;48.824;9.384;2023-04-25T09:56:16;7.20;;;6.50;;
13785;SDS011;47474;48.824;9.384;2023-04-25T09:58:44;7.57;;;6.60;;
13785;SDS011;47474;48.824;9.384;2023-04-25T10:01:13;9.33;;;7.00;;
13785;SDS011;47474;48.824;9.384;2023-04-25T10:03:40;7.00;;;6.30;;
13785;SDS011;47474;48.824;9.384;2023-04-25T10:06:08;5.73;;;5.23;;
13785;SDS011;47474;48.824;9.384;2023-04-25T10:08:36;5.80;;;5.17;;
13785;SDS011;47474;48.824;9.384;2023-04-25T10:11:04;6.47;;;5.87;;
13785;SDS011;47474;48.824;9.384;2023-04-25T10:13:34;5.17;;;4.67;;
13785;SDS011;47474;48.824;9.384;2023-04-25T10:16:01;5.60;;;4.93;;
13785;SDS011;47474;48.824;9.384;2023-04-25T10:18:29;5.37;;;4.67;;
13785;SDS011;47474;48.824;9.384;2023-04-25T10:20:57;4.47;;;4.10;;
13785;SDS011;47474;48.824;9.384;2023-04-25T10:23:29;4.60;;;4.20;;
13785;SDS011;47474;48.824;9.384;2023-04-25T10:25:56;4.43;;;4.03;;
13785;SDS011;47474;48.824;9.384;2023-04-25T10:28:23;4.73;;;4.23;;
13785;SDS011;47474;48.824;9.384;2023-04-25T10:30:58;4.60;;;4.20;;
13785;SDS011;47474;48.824;9.384;2023-04-25T10:33:32;3.97;;;3.57;;
13785;SDS011;47474;48.824;9.384;2023-04-25T10:36:08;3.60;;;3.30;;
13785;SDS011;47474;48.824;9.384;2023-04-25T10:38:36;3.40;;;3.10;;
13785;SDS011;47474;48.824;9.384;2023-04-25T10:41:03;2.90;;;2.70;;
13785;SDS011;47474;48.824;9.384;2023-04-25T10:43:35;3.63;;;3.30;;
13785;SDS011;47474;48.824;9.384;2023-04-25T10:46:04;3.53;;;3.23;;
13785;SDS011;47474;48.824;9.384;2023-04-25T10:48:43;3.47;;;3.17;;
13785;SDS011;47474;48.824;9.384;2023-04-25T10:51:14;4.17;;;3.83;;
13785;SDS011;47474;48.824;9.384;2023-04-25T10:53:43;4.00;;;3.60;;
13785;SDS011;47474;48.824;9.384;2023-04-25T10:56:10;3.37;;;3.03;;
13785;SDS011;47474;48.824;9.384;2023-04-25T10:58:41;3.93;;;3.53;;
13785;SDS011;47474;48.824;9.384;2023-04-25T11:01:10;4.63;;;4.23;;
13785;SDS011;47474;48.824;9.384;2023-04-25T11:03:39;4.27;;;3.87;;
13785;SDS011;47474;48.824;9.384;2023-04-25T11:06:07;6.77;;;3.70;;
13785;SDS011;47474;48.824;9.384;2023-04-25T11:08:41;4.10;;;3.67;;
13785;SDS011;47474;48.824;9.384;2023-04-25T11:11:14;4.73;;;4.23;;
13785;SDS011;47474;48.824;9.384;2023-04-25T11:13:40;5.27;;;3.77;;
13785;SDS011;47474;48.824;9.384;2023-04-25T11:16:07;4.53;;;3.70;;
13785;SDS011;47474;48.824;9.384;2023-04-25T11:18:35;3.33;;;3.03;;
13785;SDS011;47474;48.824;9.384;2023-04-25T11:21:03;3.27;;;2.97;;
13785;SDS011;47474;48.824;9.384;2023-04-25T11:23:30;3.87;;;3.47;;
13785;SDS011;47474;48.824;9.384;2023-04-25T11:25:56;3.50;;;3.20;;
13785;SDS011;47474;48.824;9.384;2023-04-25T11:28:25;3.40;;;3.10;;
13785;SDS011;47474;48.824;9.384;2023-04-25T11:30:52;4.43;;;3.87;;
13785;SDS011;47474;48.824;9.384;2023-04-25T11:33:22;4.17;;;3.77;;
13785;SDS011;47474;48.824;9.384;2023-04-25T11:35:52;3.73;;;3.37;;
13785;SDS011;47474;48.824;9.384;2023-04-25T11:38:19;4.37;;;3.97;;
13785;SDS011;47474;48.824;9.384;2023-04-25T11:40:49;4.53;;;4.03;;
13785;SDS011;47474;48.824;9.384;2023-04-25T11:43:16;5.23;;;4.73;;
13785;SDS011;47474;48.824;9.384;2023-04-25T11:45:45;6.23;;;4.70;;
13785;SDS011;47474;48.824;9.384;2023-04-25T11:48:12;8.23;;;5.40;;
13785;SDS011;47474;48.824;9.384;2023-04-25T11:50:39;6.07;;;4.73;;
13785;SDS011;47474;48.824;9.384;2023-04-25T11:53:07;5.50;;;5.00;;
13785;SDS011;47474;48.824;9.384;2023-04-25T11:55:33;6.87;;;5.63;;
13785;SDS011;47474;48.824;9.384;2023-04-25T11:58:01;5.73;;;4.80;;
13785;SDS011;47474;48.824;9.384;2023-04-25T12:00:28;6.70;;;5.07;;
13785;SDS011;47474;48.824;9.384;2023-04-25T12:02:55;7.07;;;5.47;;
13785;SDS011;47474;48.824;9.384;2023-04-25T12:05:24;5.60;;;4.37;;
13785;SDS011;47474;48.824;9.384;2023-04-25T12:07:51;4.53;;;3.40;;
13785;SDS011;47474;48.824;9.384;2023-04-25T12:10:19;3.80;;;3.20;;
13785;SDS011;47474;48.824;9.384;2023-04-25T12:12:47;5.03;;;3.80;;
13785;SDS011;47474;48.824;9.384;2023-04-25T12:15:14;4.60;;;4.07;;
13785;SDS011;47474;48.824;9.384;2023-04-25T12:17:44;4.27;;;3.77;;
13785;SDS011;47474;48.824;9.384;2023-04-25T12:20:12;4.47;;;3.83;;
13785;SDS011;47474;48.824;9.384;2023-04-25T12:22:40;5.90;;;4.93;;
13785;SDS011;47474;48.824;9.384;2023-04-25T12:25:09;5.93;;;4.50;;
13785;SDS011;47474;48.824;9.384;2023-04-25T12:27:37;4.73;;;4.27;;
13785;SDS011;47474;48.824;9.384;2023-04-25T12:30:07;4.90;;;4.23;;
13785;SDS011;47474;48.824;9.384;2023-04-25T12:32:35;4.90;;;4.40;;
13785;SDS011;47474;48.824;9.384;2023-04-25T12:35:02;4.17;;;3.77;;
13785;SDS011;47474;48.824;9.384;2023-04-25T12:37:29;4.23;;;3.83;;
13785;SDS011;47474;48.824;9.384;2023-04-25T12:39:56;4.63;;;3.90;;
13785;SDS011;47474;48.824;9.384;2023-04-25T12:42:24;4.63;;;4.17;;
13785;SDS011;47474;48.824;9.384;2023-04-25T12:44:52;4.20;;;3.80;;
13785;SDS011;47474;48.824;9.384;2023-04-25T12:47:18;5.13;;;4.63;;
13785;SDS011;47474;48.824;9.384;2023-04-25T12:49:45;5.20;;;4.00;;
13785;SDS011;47474;48.824;9.384;2023-04-25T12:52:12;5.80;;;5.13;;
13785;SDS011;47474;48.824;9.384;2023-04-25T12:54:38;6.70;;;5.07;;
13785;SDS011;47474;48.824;9.384;2023-04-25T12:57:05;6.43;;;4.80;;
13785;SDS011;47474;48.824;9.384;2023-04-25T12:59:32;5.10;;;4.50;;
13785;SDS011;47474;48.824;9.384;2023-04-25T13:02:00;6.27;;;4.60;;
13785;SDS011;47474;48.824;9.384;2023-04-25T13:04:27;6.80;;;6.10;;
13785;SDS011;47474;48.824;9.384;2023-04-25T13:06:54;6.83;;;6.13;;
13785;SDS011;47474;48.824;9.384;2023-04-25T13:09:21;6.93;;;6.23;;
13785;SDS011;47474;48.824;9.384;2023-04-25T13:11:47;7.30;;;6.20;;
13785;SDS011;47474;48.824;9.384;2023-04-25T13:14:14;9.97;;;6.37;;
13785;SDS011;47474;48.824;9.384;2023-04-25T13:16:41;7.13;;;6.43;;
13785;SDS011;47474;48.824;9.384;2023-04-25T13:19:09;9.10;;;7.33;;
13785;SDS011;47474;48.824;9.384;2023-04-25T13:21:36;9.97;;;7.37;;
13785;SDS011;47474;48.824;9.384;2023-04-25T13:24:03;8.33;;;7.30;;
13785;SDS011;47474;48.824;9.384;2023-04-25T13:26:30;9.33;;;7.33;;
13785;SDS011;47474;48.824;9.384;2023-04-25T13:28:56;10.40;;;7.53;;
13785;SDS011;47474;48.824;9.384;2023-04-25T13:31:23;9.50;;;7.50;;
13785;SDS011;47474;48.824;9.384;2023-04-25T13:33:49;7.83;;;6.67;;
13785;SDS011;47474;48.824;9.384;2023-04-25T13:36:17;8.17;;;7.33;;
13785;SDS011;47474;48.824;9.384;2023-04-25T13:38:44;9.03;;;6.13;;
13785;SDS011;47474;48.824;9.384;2023-04-25T13:41:12;9.00;;;7.07;;
13785;SDS011;47474;48.824;9.384;2023-04-25T13:43:43;7.93;;;7.00;;
13785;SDS011;47474;48.824;9.384;2023-04-25T13:46:12;10.97;;;7.87;;
13785;SDS011;47474;48.824;9.384;2023-04-25T13:48:40;11.30;;;6.80;;
13785;SDS011;47474;48.824;9.384;2023-04-25T13:51:11;9.30;;;7.47;;
13785;SDS011;47474;48.824;9.384;2023-04-25T13:53:41;8.23;;;7.00;;
13785;SDS011;47474;48.824;9.384;2023-04-25T13:56:11;9.23;;;7.20;;
13785;SDS011;47474;48.824;9.384;2023-04-25T13:58:45;8.00;;;7.00;;
13785;SDS011;47474;48.824;9.384;2023-04-25T14:01:14;11.50;;;7.53;;
13785;SDS011;47474;48.824;9.384;2023-04-25T14:03:43;9.03;;;7.30;;
13785;SDS011;47474;48.824;9.384;2023-04-25T14:06:17;7.80;;;7.00;;
13785;SDS011;47474;48.824;9.384;2023-04-25T14:08:49;9.97;;;7.40;;
13785;SDS011;47474;48.824;9.384;2023-04-25T14:11:15;9.03;;;7.80;;
13785;SDS011;47474;48.824;9.384;2023-04-25T14:13:43;10.67;;;7.80;;
13785;SDS011;47474;48.824;9.384;2023-04-25T14:16:16;9.13;;;8.10;;
13785;SDS011;47474;48.824;9.384;2023-04-25T14:18:42;12.20;;;9.67;;
13785;SDS011;47474;48.824;9.384;2023-04-25T14:21:14;13.33;;;9.93;;
13785;SDS011;47474;48.824;9.384;2023-04-25T14:23:53;13.93;;;10.60;;
13785;SDS011;47474;48.824;9.384;2023-04-25T14:26:22;13.13;;;10.33;;
13785;SDS011;47474;48.824;9.384;2023-04-25T14:28:50;14.40;;;11.67;;
13785;SDS011;47474;48.824;9.384;2023-04-25T14:31:17;11.47;;;10.17;;
13785;SDS011;47474;48.824;9.384;2023-04-25T14:33:44;12.53;;;10.97;;
13785;SDS011;47474;48.824;9.384;2023-04-25T14:36:11;11.13;;;10.00;;
13785;SDS011;47474;48.824;9.384;2023-04-25T14:38:39;11.30;;;10.00;;
13785;SDS011;47474;48.824;9.384;2023-04-25T14:41:11;13.33;;;9.70;;
13785;SDS011;47474;48.824;9.384;2023-04-25T14:43:37;10.50;;;9.37;;
13785;SDS011;47474;48.824;9.384;2023-04-25T14:46:05;14.10;;;9.40;;
13785;SDS011;47474;48.824;9.384;2023-04-25T14:48:35;11.77;;;9.40;;
13785;SDS011;47474;48.824;9.384;2023-04-25T14:51:06;9.33;;;8.33;;
13785;SDS011;47474;48.824;9.384;2023-04-25T14:53:35;10.17;;;8.17;;
13785;SDS011;47474;48.824;9.384;2023-04-25T14:56:06;8.87;;;7.97;;
13785;SDS011;47474;48.824;9.384;2023-04-25T14:58:35;7.67;;;6.83;;
13785;SDS011;47474;48.824;9.384;2023-04-25T15:01:05;8.90;;;7.73;;
13785;SDS011;47474;48.824;9.384;2023-04-25T15:03:33;7.27;;;6.50;;
13785;SDS011;47474;48.824;9.384;2023-04-25T15:06:02;7.17;;;6.13;;
13785;SDS011;47474;48.824;9.384;2023-04-25T15:08:28;8.07;;;6.57;;
13785;SDS011;47474;48.824;9.384;2023-04-25T15:11:04;7.90;;;7.10;;
13785;SDS011;47474;48.824;9.384;2023-04-25T15:13:35;7.70;;;6.73;;
13785;SDS011;47474;48.824;9.384;2023-04-25T15:16:07;8.50;;;7.50;;
13785;SDS011;47474;48.824;9.384;2023-04-25T15:18:36;7.63;;;6.80;;
13785;SDS011;47474;48.824;9.384;2023-04-25T15:21:03;6.83;;;6.07;;
13785;SDS011;47474;48.824;9.384;2023-04-25T15:23:32;6.87;;;6.17;;